sensor_id;sensor_type;location;lat;lon;timestamp;pressure;altitude;pressure_sealevel;temperature;humidity
47763;BME280;33526;42.690;23.322;2023-02-10T05:12:57;96747.38;;;-6.86;69.50
47763;BME280;33526;42.690;23.322;2023-02-10T06:09:45;96612.38;;;-8.11;69.60
47763;BME280;33526;42.690;23.322;2023-02-10T06:12:23;96597.16;;;-8.21;69.93
47763;BME280;33526;42.690;23.322;2023-02-10T06:14:48;96684.16;;;-7.72;70.30
47763;BME280;33526;42.690;23.322;2023-02-10T06:17:18;96816.81;;;-6.89;70.08
47763;BME280;33526;42.690;23.322;2023-02-10T06:19:43;96730.13;;;-7.22;71.39
47763;BME280;33526;42.690;23.322;2023-02-10T06:22:10;96686.13;;;-7.64;69.96
47763;BME280;33526;42.690;23.322;2023-02-10T06:24:36;96738.59;;;-7.23;70.33
47763;BME280;33526;42.690;23.322;2023-02-10T06:27:03;96711.03;;;-7.39;70.09
47763;BME280;33526;42.690;23.322;2023-02-10T06:29:30;96654.94;;;-7.66;69.96
47763;BME280;33526;42.690;23.322;2023-02-10T06:31:56;96832.81;;;-6.47;70.06
47763;BME280;33526;42.690;23.322;2023-02-10T06:34:23;96713.66;;;-7.25;70.11
47763;BME280;33526;42.690;23.322;2023-02-10T06:36:49;96692.44;;;-7.46;69.31
47763;BME280;33526;42.690;23.322;2023-02-10T06:39:20;96655.91;;;-7.62;68.83
47763;BME280;33526;42.690;23.322;2023-02-10T06:41:56;96791.59;;;-6.72;69.12
47763;BME280;33526;42.690;23.322;2023-02-10T06:44:42;96664.91;;;-7.53;68.29
47763;BME280;33526;42.690;23.322;2023-02-10T06:47:11;96724.44;;;-7.43;67.88
47763;BME280;33526;42.690;23.322;2023-02-10T06:49:38;96844.34;;;-6.90;68.47
47763;BME280;33526;42.690;23.322;2023-02-10T06:55:26;96729.50;;;-7.50;69.46
47763;BME280;33526;42.690;23.322;2023-02-10T06:58:12;96816.88;;;-6.80;68.72
47763;BME280;33526;42.690;23.322;2023-02-10T07:00:38;96842.22;;;-6.54;68.62
47763;BME280;33526;42.690;23.322;2023-02-10T07:03:06;96843.56;;;-6.42;68.38
47763;BME280;33526;42.690;23.322;2023-02-10T07:05:49;96855.13;;;-6.37;67.30
47763;BME280;33526;42.690;23.322;2023-02-10T07:09:01;96719.56;;;-7.23;66.84
47763;BME280;33526;42.690;23.322;2023-02-10T07:11:59;96732.50;;;-7.20;66.86
47763;BME280;33526;42.690;23.322;2023-02-10T07:14:47;96751.84;;;-6.90;66.31
47763;BME280;33526;42.690;23.322;2023-02-10T07:20:56;96816.38;;;-6.33;66.94
47763;BME280;33526;42.690;23.322;2023-02-10T07:24:25;96770.22;;;-6.47;66.04
47763;BME280;33526;42.690;23.322;2023-02-10T07:27:42;96767.78;;;-6.58;66.19
47763;BME280;33526;42.690;23.322;2023-02-10T07:37:42;96836.91;;;-5.84;65.42
47763;BME280;33526;42.690;23.322;2023-02-10T07:40:30;96848.97;;;-5.85;65.00
47763;BME280;33526;42.690;23.322;2023-02-10T07:43:16;96837.13;;;-5.98;65.20
47763;BME280;33526;42.690;23.322;2023-02-10T07:49:28;96832.28;;;-6.09;65.37
47763;BME280;33526;42.690;23.322;2023-02-10T07:56:01;96835.97;;;-5.70;65.19
47763;BME280;33526;42.690;23.322;2023-02-10T07:59:17;96828.59;;;-5.61;64.44
47763;BME280;33526;42.690;23.322;2023-02-10T08:01:42;96850.91;;;-5.50;64.05
47763;BME280;33526;42.690;23.322;2023-02-10T08:04:47;96785.00;;;-5.96;64.68
47763;BME280;33526;42.690;23.322;2023-02-10T08:08:10;96791.59;;;-5.97;63.89
47763;BME280;33526;42.690;23.322;2023-02-10T08:10:40;96665.34;;;-6.62;64.05
47763;BME280;33526;42.690;23.322;2023-02-10T08:13:09;96834.69;;;-5.29;64.16
47763;BME280;33526;42.690;23.322;2023-02-10T08:15:39;96742.34;;;-5.74;63.32
47763;BME280;33526;42.690;23.322;2023-02-10T08:18:04;96840.06;;;-4.94;62.39
47763;BME280;33526;42.690;23.322;2023-02-10T08:20:30;96741.69;;;-5.54;61.71
47763;BME280;33526;42.690;23.322;2023-02-10T08:22:56;96831.72;;;-4.89;61.91
47763;BME280;33526;42.690;23.322;2023-02-10T08:25:23;96791.00;;;-5.12;62.30
47763;BME280;33526;42.690;23.322;2023-02-10T08:27:53;96767.06;;;-5.15;61.88
47763;BME280;33526;42.690;23.322;2023-02-10T08:30:19;96742.94;;;-5.43;61.52
47763;BME280;33526;42.690;23.322;2023-02-10T08:32:53;96750.25;;;-5.17;61.57
47763;BME280;33526;42.690;23.322;2023-02-10T08:35:21;96644.66;;;-5.55;60.36
47763;BME280;33526;42.690;23.322;2023-02-10T08:38:11;96705.47;;;-5.16;60.07
47763;BME280;33526;42.690;23.322;2023-02-10T08:40:40;96664.75;;;-5.21;61.07
47763;BME280;33526;42.690;23.322;2023-02-10T08:43:07;96852.78;;;-3.92;59.70
47763;BME280;33526;42.690;23.322;2023-02-10T08:45:33;96708.28;;;-4.35;61.04
47763;BME280;33526;42.690;23.322;2023-02-10T08:50:56;96827.06;;;-3.49;58.62
47763;BME280;33526;42.690;23.322;2023-02-10T08:57:24;96824.13;;;-3.43;57.66
47763;BME280;33526;42.690;23.322;2023-02-10T09:07:46;96619.81;;;-4.64;57.51
47763;BME280;33526;42.690;23.322;2023-02-10T09:10:38;96736.03;;;-3.70;57.44
47763;BME280;33526;42.690;23.322;2023-02-10T09:13:37;96678.38;;;-3.77;57.85
47763;BME280;33526;42.690;23.322;2023-02-10T09:32:12;96601.75;;;-3.44;54.77
47763;BME280;33526;42.690;23.322;2023-02-10T09:53:25;96776.72;;;-1.91;53.34
47763;BME280;33526;42.690;23.322;2023-02-10T11:02:50;96498.66;;;-1.74;48.41
47763;BME280;33526;42.690;23.322;2023-02-10T11:10:55;96567.91;;;-0.98;47.56
47763;BME280;33526;42.690;23.322;2023-02-10T11:13:29;96646.97;;;-0.55;47.16
47763;BME280;33526;42.690;23.322;2023-02-10T11:45:31;96650.72;;;0.73;44.66
47763;BME280;33526;42.690;23.322;2023-02-10T11:49:00;96661.00;;;0.53;44.46
47763;BME280;33526;42.690;23.322;2023-02-10T12:01:21;96641.13;;;0.63;44.12
47763;BME280;33526;42.690;23.322;2023-02-10T12:16:03;96622.91;;;1.01;43.85
47763;BME280;33526;42.690;23.322;2023-02-10T12:19:03;96615.81;;;1.27;43.92
47763;BME280;33526;42.690;23.322;2023-02-10T12:25:38;96480.75;;;0.70;44.68
47763;BME280;33526;42.690;23.322;2023-02-10T12:31:57;96537.19;;;1.37;42.51
47763;BME280;33526;42.690;23.322;2023-02-10T12:35:01;96607.16;;;1.85;41.90
47763;BME280;33526;42.690;23.322;2023-02-10T13:12:38;96589.69;;;1.74;42.46
47763;BME280;33526;42.690;23.322;2023-02-10T13:16:18;96592.13;;;1.79;42.55
47763;BME280;33526;42.690;23.322;2023-02-10T13:59:02;96582.38;;;1.89;42.89
47763;BME280;33526;42.690;23.322;2023-02-10T14:02:22;96503.97;;;1.26;43.53
47763;BME280;33526;42.690;23.322;2023-02-10T14:05:35;96422.34;;;0.84;44.35
47763;BME280;33526;42.690;23.322;2023-02-10T14:08:25;96385.97;;;0.71;44.06
47763;BME280;33526;42.690;23.322;2023-02-10T14:11:43;96572.56;;;1.91;44.29
47763;BME280;33526;42.690;23.322;2023-02-10T14:15:12;96535.19;;;1.64;44.28
47763;BME280;33526;42.690;23.322;2023-02-10T14:18:04;96519.44;;;1.64;45.13
47763;BME280;33526;42.690;23.322;2023-02-10T14:20:44;96420.94;;;0.97;47.09
47763;BME280;33526;42.690;23.322;2023-02-10T14:23:30;96574.00;;;2.12;46.43
47763;BME280;33526;42.690;23.322;2023-02-10T14:26:19;96570.41;;;2.08;45.16
47763;BME280;33526;42.690;23.322;2023-02-10T14:28:50;96398.47;;;0.95;45.72
47763;BME280;33526;42.690;23.322;2023-02-10T14:31:35;96392.00;;;1.10;44.73
47763;BME280;33526;42.690;23.322;2023-02-10T14:37:16;96564.19;;;2.15;45.61
47763;BME280;33526;42.690;23.322;2023-02-10T14:40:36;96552.31;;;2.14;46.56
47763;BME280;33526;42.690;23.322;2023-02-10T14:44:00;96565.72;;;2.12;46.63
47763;BME280;33526;42.690;23.322;2023-02-10T14:51:43;96362.41;;;0.73;47.01
47763;BME280;33526;42.690;23.322;2023-02-10T15:00:11;96427.31;;;1.01;47.35
47763;BME280;33526;42.690;23.322;2023-02-10T15:02:41;96453.53;;;1.22;47.05
47763;BME280;33526;42.690;23.322;2023-02-10T15:37:03;96576.69;;;1.44;47.10
47763;BME280;33526;42.690;23.322;2023-02-10T15:43:05;96525.78;;;0.81;48.07
47763;BME280;33526;42.690;23.322;2023-02-10T15:45:50;96552.19;;;0.86;48.07
47763;BME280;33526;42.690;23.322;2023-02-10T15:48:31;96516.66;;;0.54;49.05
47763;BME280;33526;42.690;23.322;2023-02-10T15:51:30;96414.59;;;-0.10;48.96
47763;BME280;33526;42.690;23.322;2023-02-10T15:53:59;96601.63;;;1.02;49.49
47763;BME280;33526;42.690;23.322;2023-02-10T15:56:30;96567.88;;;0.82;48.40
47763;BME280;33526;42.690;23.322;2023-02-10T15:59:23;96493.88;;;0.30;48.33
47763;BME280;33526;42.690;23.322;2023-02-10T16:02:13;96521.94;;;0.40;48.26
47763;BME280;33526;42.690;23.322;2023-02-10T16:04:57;96406.22;;;-0.41;48.18
47763;BME280;33526;42.690;23.322;2023-02-10T16:07:24;96612.84;;;0.89;47.89
47763;BME280;33526;42.690;23.322;2023-02-10T16:09:56;96428.03;;;-0.28;47.91
47763;BME280;33526;42.690;23.322;2023-02-10T16:12:24;96614.44;;;0.90;47.64
47763;BME280;33526;42.690;23.322;2023-02-10T16:14:50;96472.34;;;-0.10;47.92
47763;BME280;33526;42.690;23.322;2023-02-10T16:17:23;96554.25;;;0.43;49.64
47763;BME280;33526;42.690;23.322;2023-02-10T16:20:01;96539.38;;;0.24;50.43
47763;BME280;33526;42.690;23.322;2023-02-10T16:22:30;96554.69;;;0.25;50.76
47763;BME280;33526;42.690;23.322;2023-02-10T16:25:02;96572.09;;;0.29;51.39
47763;BME280;33526;42.690;23.322;2023-02-10T16:27:31;96472.47;;;-0.46;51.64
47763;BME280;33526;42.690;23.322;2023-02-10T16:29:57;96577.75;;;0.17;51.73
47763;BME280;33526;42.690;23.322;2023-02-10T16:32:25;96524.25;;;-0.28;51.75
47763;BME280;33526;42.690;23.322;2023-02-10T16:35:02;96610.91;;;0.24;51.98
47763;BME280;33526;42.690;23.322;2023-02-10T16:37:30;96540.75;;;-0.28;52.59
47763;BME280;33526;42.690;23.322;2023-02-10T16:40:09;96507.47;;;-0.43;53.53
47763;BME280;33526;42.690;23.322;2023-02-10T16:42:47;96492.19;;;-0.60;53.90
47763;BME280;33526;42.690;23.322;2023-02-10T16:45:15;96527.84;;;-0.44;54.69
47763;BME280;33526;42.690;23.322;2023-02-10T16:47:45;96645.50;;;0.25;55.50
47763;BME280;33526;42.690;23.322;2023-02-10T16:53:11;96639.72;;;0.11;56.40
47763;BME280;33526;42.690;23.322;2023-02-10T17:10:12;96561.81;;;-0.71;57.98
47763;BME280;33526;42.690;23.322;2023-02-10T17:12:44;96644.50;;;-0.25;58.44
47763;BME280;33526;42.690;23.322;2023-02-10T17:15:14;96530.63;;;-0.99;59.04
47763;BME280;33526;42.690;23.322;2023-02-10T17:17:54;96643.59;;;-0.29;58.63
47763;BME280;33526;42.690;23.322;2023-02-10T17:20:40;96647.09;;;-0.32;58.77
47763;BME280;33526;42.690;23.322;2023-02-10T17:23:08;96653.72;;;-0.33;59.68
47763;BME280;33526;42.690;23.322;2023-02-10T17:25:42;96493.59;;;-1.40;59.60
47763;BME280;33526;42.690;23.322;2023-02-10T17:28:47;96559.41;;;-1.08;58.89
47763;BME280;33526;42.690;23.322;2023-02-10T17:31:34;96495.56;;;-1.57;59.00
47763;BME280;33526;42.690;23.322;2023-02-10T17:34:32;96471.66;;;-1.72;58.92
47763;BME280;33526;42.690;23.322;2023-02-10T17:37:03;96544.91;;;-1.25;59.31
47763;BME280;33526;42.690;23.322;2023-02-10T17:39:51;96551.44;;;-1.13;61.78
47763;BME280;33526;42.690;23.322;2023-02-10T17:45:37;96509.09;;;-1.80;57.55
47763;BME280;33526;42.690;23.322;2023-02-10T17:48:11;96505.28;;;-1.75;57.53
47763;BME280;33526;42.690;23.322;2023-02-10T17:50:42;96682.09;;;-0.65;58.28
47763;BME280;33526;42.690;23.322;2023-02-10T17:53:27;96548.81;;;-1.58;58.06
47763;BME280;33526;42.690;23.322;2023-02-10T17:55:55;96684.44;;;-0.63;58.27
47763;BME280;33526;42.690;23.322;2023-02-10T17:58:23;96508.19;;;-1.84;59.17
47763;BME280;33526;42.690;23.322;2023-02-10T18:00:49;96681.25;;;-0.65;58.38
47763;BME280;33526;42.690;23.322;2023-02-10T18:03:14;96685.09;;;-0.70;58.43
47763;BME280;33526;42.690;23.322;2023-02-10T18:05:41;96638.34;;;-1.05;58.42
47763;BME280;33526;42.690;23.322;2023-02-10T18:08:10;96575.84;;;-1.44;58.09
47763;BME280;33526;42.690;23.322;2023-02-10T18:10:38;96568.47;;;-1.56;58.05
47763;BME280;33526;42.690;23.322;2023-02-10T18:13:04;96623.47;;;-1.20;57.53
47763;BME280;33526;42.690;23.322;2023-02-10T18:15:29;96610.00;;;-1.25;57.87
47763;BME280;33526;42.690;23.322;2023-02-10T18:17:55;96607.16;;;-1.29;57.68
47763;BME280;33526;42.690;23.322;2023-02-10T18:20:20;96593.72;;;-1.34;56.33
47763;BME280;33526;42.690;23.322;2023-02-10T18:22:46;96635.22;;;-1.20;55.91
47763;BME280;33526;42.690;23.322;2023-02-10T18:25:13;96705.38;;;-0.74;55.95
47763;BME280;33526;42.690;23.322;2023-02-10T18:27:39;96613.63;;;-1.37;55.79
47763;BME280;33526;42.690;23.322;2023-02-10T18:30:05;96705.22;;;-0.82;56.24
47763;BME280;33526;42.690;23.322;2023-02-10T18:32:33;96662.00;;;-1.17;56.01
47763;BME280;33526;42.690;23.322;2023-02-10T18:35:02;96590.94;;;-1.66;55.68
47763;BME280;33526;42.690;23.322;2023-02-10T18:37:27;96622.66;;;-1.52;55.55
47763;BME280;33526;42.690;23.322;2023-02-10T18:39:53;96711.75;;;-0.70;57.37
47763;BME280;33526;42.690;23.322;2023-02-10T18:42:25;96713.88;;;-0.80;55.77
47763;BME280;33526;42.690;23.322;2023-02-10T18:44:51;96680.56;;;-0.94;57.73
47763;BME280;33526;42.690;23.322;2023-02-10T18:47:16;96624.97;;;-1.39;55.87
47763;BME280;33526;42.690;23.322;2023-02-10T18:49:42;96654.97;;;-1.30;55.24
47763;BME280;33526;42.690;23.322;2023-02-10T18:52:07;96677.38;;;-1.28;55.33
47763;BME280;33526;42.690;23.322;2023-02-10T18:54:33;96662.31;;;-1.34;55.80
47763;BME280;33526;42.690;23.322;2023-02-10T18:56:59;96642.09;;;-1.58;55.72
47763;BME280;33526;42.690;23.322;2023-02-10T18:59:24;96674.00;;;-1.37;55.49
47763;BME280;33526;42.690;23.322;2023-02-10T19:01:51;96669.13;;;-1.44;55.89
47763;BME280;33526;42.690;23.322;2023-02-10T19:04:17;96708.56;;;-1.20;55.58
47763;BME280;33526;42.690;23.322;2023-02-10T19:06:42;96651.47;;;-1.59;55.47
47763;BME280;33526;42.690;23.322;2023-02-10T19:09:08;96731.94;;;-1.10;56.02
47763;BME280;33526;42.690;23.322;2023-02-10T19:11:35;96703.03;;;-1.36;56.35
47763;BME280;33526;42.690;23.322;2023-02-10T19:14:00;96666.16;;;-1.67;55.96
47763;BME280;33526;42.690;23.322;2023-02-10T19:16:26;96737.94;;;-1.21;56.43
47763;BME280;33526;42.690;23.322;2023-02-10T19:18:52;96738.13;;;-1.13;56.59
47763;BME280;33526;42.690;23.322;2023-02-10T19:21:17;96726.78;;;-1.28;56.38
47763;BME280;33526;42.690;23.322;2023-02-10T19:23:44;96650.63;;;-1.75;55.62
47763;BME280;33526;42.690;23.322;2023-02-10T19:26:11;96655.69;;;-1.77;56.53
47763;BME280;33526;42.690;23.322;2023-02-10T19:28:37;96716.56;;;-1.43;56.03
47763;BME280;33526;42.690;23.322;2023-02-10T19:31:05;96692.63;;;-1.59;57.09
47763;BME280;33526;42.690;23.322;2023-02-10T19:33:31;96744.16;;;-1.24;56.04
47763;BME280;33526;42.690;23.322;2023-02-10T19:35:57;96672.59;;;-1.75;56.32
47763;BME280;33526;42.690;23.322;2023-02-10T19:38:24;96657.78;;;-1.86;56.23
47763;BME280;33526;42.690;23.322;2023-02-10T19:41:01;96666.56;;;-1.81;56.36
47763;BME280;33526;42.690;23.322;2023-02-10T19:43:26;96697.03;;;-1.70;56.91
47763;BME280;33526;42.690;23.322;2023-02-10T19:45:52;96680.81;;;-1.75;57.13
47763;BME280;33526;42.690;23.322;2023-02-10T19:48:17;96697.91;;;-1.66;56.67
47763;BME280;33526;42.690;23.322;2023-02-10T19:50:43;96685.75;;;-1.81;56.62
47763;BME280;33526;42.690;23.322;2023-02-10T19:53:08;96731.31;;;-1.48;56.51
47763;BME280;33526;42.690;23.322;2023-02-10T19:55:35;96721.91;;;-1.63;56.96
47763;BME280;33526;42.690;23.322;2023-02-10T19:58:01;96730.00;;;-1.54;57.12
47763;BME280;33526;42.690;23.322;2023-02-10T20:00:26;96672.53;;;-1.91;57.03
47763;BME280;33526;42.690;23.322;2023-02-10T20:02:53;96728.03;;;-1.54;56.50
47763;BME280;33526;42.690;23.322;2023-02-10T20:05:19;96731.94;;;-1.55;56.92
47763;BME280;33526;42.690;23.322;2023-02-10T20:07:44;96688.38;;;-1.84;57.07
47763;BME280;33526;42.690;23.322;2023-02-10T20:10:09;96752.25;;;-1.43;56.40
47763;BME280;33526;42.690;23.322;2023-02-10T20:12:35;96760.38;;;-1.47;57.13
47763;BME280;33526;42.690;23.322;2023-02-10T20:15:01;96583.81;;;-2.67;57.73
47763;BME280;33526;42.690;23.322;2023-02-10T20:17:27;96592.25;;;-2.60;57.14
47763;BME280;33526;42.690;23.322;2023-02-10T20:19:53;96584.47;;;-2.58;57.40
47763;BME280;33526;42.690;23.322;2023-02-10T20:22:18;96625.06;;;-2.36;57.09
47763;BME280;33526;42.690;23.322;2023-02-10T20:24:44;96729.50;;;-1.72;57.25
47763;BME280;33526;42.690;23.322;2023-02-10T20:27:11;96765.81;;;-1.63;57.36
47763;BME280;33526;42.690;23.322;2023-02-10T20:29:37;96696.44;;;-2.04;57.43
47763;BME280;33526;42.690;23.322;2023-02-10T20:32:02;96761.47;;;-1.64;57.61
47763;BME280;33526;42.690;23.322;2023-02-10T20:34:28;96697.84;;;-2.10;57.89
47763;BME280;33526;42.690;23.322;2023-02-10T20:36:53;96721.88;;;-1.91;57.52
47763;BME280;33526;42.690;23.322;2023-02-10T20:39:19;96641.88;;;-2.50;58.07
47763;BME280;33526;42.690;23.322;2023-02-10T20:41:44;96720.66;;;-1.94;57.99
47763;BME280;33526;42.690;23.322;2023-02-10T20:44:10;96653.72;;;-2.45;58.24
47763;BME280;33526;42.690;23.322;2023-02-10T20:46:36;96667.19;;;-2.40;58.64
47763;BME280;33526;42.690;23.322;2023-02-10T20:49:02;96763.44;;;-1.77;58.51
47763;BME280;33526;42.690;23.322;2023-02-10T20:51:33;96761.31;;;-1.83;59.08
47763;BME280;33526;42.690;23.322;2023-02-10T20:53:59;96753.06;;;-1.83;59.09
47763;BME280;33526;42.690;23.322;2023-02-10T20:56:24;96643.13;;;-2.59;59.23
47763;BME280;33526;42.690;23.322;2023-02-10T20:58:50;96666.97;;;-2.47;59.66
47763;BME280;33526;42.690;23.322;2023-02-10T21:01:16;96650.31;;;-2.55;59.52
47763;BME280;33526;42.690;23.322;2023-02-10T21:03:42;96682.81;;;-2.28;59.89
47763;BME280;33526;42.690;23.322;2023-02-10T21:06:18;96758.69;;;-1.92;60.04
47763;BME280;33526;42.690;23.322;2023-02-10T21:08:46;96756.19;;;-1.97;60.58
47763;BME280;33526;42.690;23.322;2023-02-10T21:11:14;96692.19;;;-2.42;60.49
47763;BME280;33526;42.690;23.322;2023-02-10T21:13:40;96611.44;;;-2.97;61.24
47763;BME280;33526;42.690;23.322;2023-02-10T21:16:08;96681.69;;;-2.52;61.25
47763;BME280;33526;42.690;23.322;2023-02-10T21:18:35;96638.72;;;-2.89;61.39
47763;BME280;33526;42.690;23.322;2023-02-10T21:21:03;96728.91;;;-2.18;61.37
47763;BME280;33526;42.690;23.322;2023-02-10T21:23:29;96714.34;;;-2.35;61.95
47763;BME280;33526;42.690;23.322;2023-02-10T21:25:55;96648.31;;;-2.82;62.33
47763;BME280;33526;42.690;23.322;2023-02-10T21:28:21;96605.75;;;-3.04;61.99
47763;BME280;33526;42.690;23.322;2023-02-10T21:30:47;96556.84;;;-3.43;62.32
47763;BME280;33526;42.690;23.322;2023-02-10T21:33:14;96625.75;;;-2.92;62.32
47763;BME280;33526;42.690;23.322;2023-02-10T21:35:50;96616.03;;;-3.01;62.44
47763;BME280;33526;42.690;23.322;2023-02-10T21:38:17;96702.34;;;-2.42;62.65
47763;BME280;33526;42.690;23.322;2023-02-10T21:40:43;96699.75;;;-2.51;62.93
47763;BME280;33526;42.690;23.322;2023-02-10T21:43:09;96741.28;;;-2.24;63.00
47763;BME280;33526;42.690;23.322;2023-02-10T21:45:36;96722.09;;;-2.37;62.58
47763;BME280;33526;42.690;23.322;2023-02-10T21:48:05;96659.59;;;-2.84;62.91
47763;BME280;33526;42.690;23.322;2023-02-10T21:50:30;96689.59;;;-2.63;62.14
47763;BME280;33526;42.690;23.322;2023-02-10T21:52:56;96698.13;;;-2.52;62.46
47763;BME280;33526;42.690;23.322;2023-02-10T21:55:22;96655.59;;;-2.86;63.27
47763;BME280;33526;42.690;23.322;2023-02-10T21:57:47;96633.72;;;-2.99;62.64
47763;BME280;33526;42.690;23.322;2023-02-10T22:00:13;96716.19;;;-2.51;63.49
47763;BME280;33526;42.690;23.322;2023-02-10T22:02:40;96650.59;;;-2.97;63.34
47763;BME280;33526;42.690;23.322;2023-02-10T22:05:05;96647.28;;;-3.02;63.42
47763;BME280;33526;42.690;23.322;2023-02-10T22:07:33;96704.78;;;-2.65;63.56
47763;BME280;33526;42.690;23.322;2023-02-10T22:09:58;96636.00;;;-3.13;63.88
47763;BME280;33526;42.690;23.322;2023-02-10T22:12:24;96683.91;;;-2.82;64.09
47763;BME280;33526;42.690;23.322;2023-02-10T22:14:50;96704.78;;;-2.65;63.92
47763;BME280;33526;42.690;23.322;2023-02-10T22:17:16;96662.44;;;-2.93;63.51
47763;BME280;33526;42.690;23.322;2023-02-10T22:19:41;96675.69;;;-2.95;64.01
47763;BME280;33526;42.690;23.322;2023-02-10T22:22:07;96645.22;;;-3.05;64.04
47763;BME280;33526;42.690;23.322;2023-02-10T22:24:32;96713.31;;;-2.67;63.78
47763;BME280;33526;42.690;23.322;2023-02-10T22:26:58;96630.19;;;-3.24;64.40
47763;BME280;33526;42.690;23.322;2023-02-10T22:29:23;96697.50;;;-2.74;64.53
47763;BME280;33526;42.690;23.322;2023-02-10T22:31:49;96647.06;;;-3.10;64.23
47763;BME280;33526;42.690;23.322;2023-02-10T22:34:16;96755.88;;;-2.45;63.92
47763;BME280;33526;42.690;23.322;2023-02-10T22:36:42;96626.50;;;-3.40;63.62
47763;BME280;33526;42.690;23.322;2023-02-10T22:39:08;96676.91;;;-3.04;64.14
47763;BME280;33526;42.690;23.322;2023-02-10T22:41:33;96693.56;;;-2.97;64.09
47763;BME280;33526;42.690;23.322;2023-02-10T22:44:01;96699.06;;;-2.97;64.53
47763;BME280;33526;42.690;23.322;2023-02-10T22:46:27;96629.72;;;-3.38;64.40
47763;BME280;33526;42.690;23.322;2023-02-10T22:48:53;96648.72;;;-3.30;64.21
47763;BME280;33526;42.690;23.322;2023-02-10T22:51:22;96755.69;;;-2.64;63.84
47763;BME280;33526;42.690;23.322;2023-02-10T22:53:52;96672.81;;;-3.23;64.16
47763;BME280;33526;42.690;23.322;2023-02-10T22:56:20;96739.81;;;-2.71;64.31
47763;BME280;33526;42.690;23.322;2023-02-10T22:58:46;96668.25;;;-3.31;63.69
47763;BME280;33526;42.690;23.322;2023-02-10T23:01:23;96752.03;;;-2.81;63.82
47763;BME280;33526;42.690;23.322;2023-02-10T23:03:49;96728.25;;;-3.01;64.53
47763;BME280;33526;42.690;23.322;2023-02-10T23:06:14;96592.22;;;-3.84;64.41
47763;BME280;33526;42.690;23.322;2023-02-10T23:08:40;96629.44;;;-3.58;64.32
47763;BME280;33526;42.690;23.322;2023-02-10T23:11:05;96710.91;;;-3.05;64.37
47763;BME280;33526;42.690;23.322;2023-02-10T23:13:34;96726.91;;;-2.95;64.36
47763;BME280;33526;42.690;23.322;2023-02-10T23:15:59;96687.84;;;-3.29;64.44
47763;BME280;33526;42.690;23.322;2023-02-10T23:18:25;96697.44;;;-3.23;64.20
47763;BME280;33526;42.690;23.322;2023-02-10T23:20:50;96615.06;;;-3.67;64.09
47763;BME280;33526;42.690;23.322;2023-02-10T23:23:17;96615.16;;;-3.76;64.69
47763;BME280;33526;42.690;23.322;2023-02-10T23:25:47;96623.69;;;-3.77;64.51
47763;BME280;33526;42.690;23.322;2023-02-10T23:28:13;96747.97;;;-2.96;64.55
47763;BME280;33526;42.690;23.322;2023-02-10T23:30:39;96638.06;;;-3.68;64.37
47763;BME280;33526;42.690;23.322;2023-02-10T23:33:06;96683.94;;;-3.40;64.32
47763;BME280;33526;42.690;23.322;2023-02-10T23:35:43;96675.59;;;-3.44;64.34
47763;BME280;33526;42.690;23.322;2023-02-10T23:38:10;96690.13;;;-3.31;63.93
47763;BME280;33526;42.690;23.322;2023-02-10T23:40:36;96557.28;;;-4.24;64.32
47763;BME280;33526;42.690;23.322;2023-02-10T23:43:02;96600.66;;;-3.89;64.59
47763;BME280;33526;42.690;23.322;2023-02-10T23:45:31;96691.84;;;-3.27;64.63
47763;BME280;33526;42.690;23.322;2023-02-10T23:47:57;96738.97;;;-2.96;64.91
47763;BME280;33526;42.690;23.322;2023-02-10T23:50:23;96548.88;;;-4.18;64.78
47763;BME280;33526;42.690;23.322;2023-02-10T23:52:49;96749.94;;;-2.96;64.49
47763;BME280;33526;42.690;23.322;2023-02-10T23:55:15;96755.41;;;-2.96;64.32
47763;BME280;33526;42.690;23.322;2023-02-10T23:57:40;96608.16;;;-3.86;64.12
